Weather History for Marion, VA

Change the Weather History Date:

Wednesday, September 25, 2013

  Actual Average (KGEV) Record (KGEV)
Temperature  
Mean Temperature 60 °F -  
Max Temperature 66 °F 69 °F 84 °F (1970)
Min Temperature 55 °F 46 °F 27 °F (1983)
Degree Days  
Heating Degree Days 5    
Growing Degree Days 10 (Base 50)    
Moisture  
Dew Point 59 °F    
Average Humidity 97    
Maximum Humidity 100    
Minimum Humidity 85    
Precipitation  
Precipitation 0.01 in - - ()
Sea Level Pressure  
Sea Level Pressure 29.99 in    
Wind  
Wind Speed 2 mph (ENE)    
Max Wind Speed 7 mph    
Max Gust Speed -    
Visibility 5 miles    
Events Fog , Rain    
Averages and records for this station are not official NWS values.
T = Trace of Precipitation, MM = Missing Value Source: NWS Daily Summary

Daily Weather History Graph

Daily Weather History Graph

Search for Another Location

Airport:

Trip Planner

Search our weather history database for the weather conditions in past years. The results will help you decide how hot, cold, wet, or windy it might be!

Date:

Astronomy

Sep. 25, 2013 Rise Set
Actual Time 7:15 AM EDT 7:17 PM EDT
Civil Twilight 6:50 AM EDT 7:43 PM EDT
Nautical Twilight 6:19 AM EDT 8:13 PM EDT
Astronomical Twilight 5:49 AM EDT 8:43 PM EDT
Moon 11:30 PM EDT (9/25) 1:12 PM EDT (9/25)
Length of Visible Light 12h 53m
Length of Day
12h 01m
Waning Gibbous, 64% of the Moon is Illuminated
Sep 25
Waning Gibbous
Sep 26
Last Quarter
Oct 4
New
Oct 11
First Quarter
Oct 18
Full

Hourly Weather History & Observations

Time (EDT) Temp. Dew Point Humidity Pressure Visibility Wind Dir Wind Speed Gust Speed Precip Events Conditions
12:15 AM 59.0 °F 59.0 °F 100% 30.02 in 5.0 mi Calm Calm - N/A   Clear
12:35 AM 59.0 °F 59.0 °F 100% 30.03 in 7.0 mi Calm Calm - N/A   Clear
12:55 AM 57.6 °F 57.6 °F 100% 30.02 in 2.0 mi Calm Calm - N/A   Clear
1:15 AM 57.2 °F 57.2 °F 100% 30.02 in 1.5 mi Calm Calm - N/A   Mostly Cloudy
1:35 AM 56.3 °F 56.3 °F 100% 30.02 in 0.2 mi Calm Calm - N/A Fog Fog
1:55 AM 56.5 °F 56.5 °F 100% 30.02 in 0.2 mi ESE 3.5 mph - N/A Fog Fog
2:15 AM 55.9 °F 55.9 °F 100% 30.02 in 0.2 mi East 3.5 mph - N/A Fog Fog
2:35 AM 56.3 °F 56.3 °F 100% 30.01 in 0.5 mi Calm Calm - N/A Fog Fog
2:55 AM 57.2 °F 57.2 °F 100% 30.00 in 0.2 mi ESE 3.5 mph - N/A Fog Fog
3:35 AM 57.2 °F 57.2 °F 100% 30.00 in 0.2 mi East 4.6 mph - N/A Fog Fog
3:55 AM 56.7 °F 56.7 °F 100% 29.99 in 0.2 mi ENE 3.5 mph - N/A Fog Fog
4:15 AM 57.0 °F 57.0 °F 100% 29.98 in 0.2 mi NE 3.5 mph - N/A Fog Fog
4:35 AM 56.7 °F 56.7 °F 100% 30.00 in 0.2 mi East 3.5 mph - N/A Fog Fog
4:55 AM 56.5 °F 56.5 °F 100% 30.00 in 0.2 mi Calm Calm - N/A Fog Fog
5:35 AM 56.3 °F 56.3 °F 100% 30.01 in 0.2 mi Calm Calm - N/A Fog Fog
5:55 AM 56.7 °F 56.7 °F 100% 30.00 in 0.2 mi Calm Calm - N/A Fog Fog
6:15 AM 56.5 °F 56.5 °F 100% 30.00 in 0.2 mi Calm Calm - N/A Fog Fog
6:35 AM 56.8 °F 56.8 °F 100% 30.01 in 0.2 mi Calm Calm - N/A Fog Fog
6:55 AM 57.0 °F 57.0 °F 100% 29.99 in 0.2 mi East 3.5 mph - N/A Fog Fog
7:15 AM 56.5 °F 56.5 °F 100% 29.99 in 0.2 mi ENE 4.6 mph - N/A Fog Fog
7:35 AM 56.3 °F 56.3 °F 100% 29.99 in 0.2 mi NE 4.6 mph - N/A Fog Fog
7:55 AM 56.7 °F 56.7 °F 100% 30.00 in 0.2 mi Calm Calm - N/A Fog Fog
8:15 AM 56.7 °F 56.7 °F 100% 30.01 in 0.2 mi Calm Calm - N/A Fog Fog
8:35 AM 56.8 °F 56.8 °F 100% 29.99 in 0.2 mi East 6.9 mph - N/A Fog Fog
8:55 AM 57.0 °F 57.0 °F 100% 30.00 in 0.5 mi ENE 4.6 mph - N/A Fog Fog
9:15 AM 57.2 °F 57.2 °F 100% 29.99 in 1.5 mi NE 5.8 mph - N/A   Overcast
9:35 AM 57.2 °F 57.2 °F 100% 29.98 in 0.5 mi East 5.8 mph - N/A Rain Light Rain
9:55 AM 57.6 °F 57.6 °F 100% 30.00 in 0.2 mi East 4.6 mph - N/A Fog Fog
10:15 AM 58.1 °F 58.1 °F 100% 30.01 in 0.2 mi Calm Calm - N/A Rain Light Rain
10:35 AM 58.3 °F 58.3 °F 100% 30.02 in 2.0 mi NNE 3.5 mph - N/A   Overcast
10:55 AM 59.0 °F 59.0 °F 100% 30.02 in 3.0 mi NNE 3.5 mph - N/A   Overcast
11:15 AM 59.9 °F 59.9 °F 100% 30.02 in 3.0 mi ENE 4.6 mph - N/A   Light Drizzle
11:35 AM 61.0 °F 61.0 °F 100% 30.01 in 5.0 mi ENE 6.9 mph - N/A   Overcast
11:55 AM 61.5 °F 61.5 °F 100% 30.01 in 7.0 mi NE 5.8 mph - N/A   Overcast
12:15 PM 64.2 °F 62.1 °F 93% 30.00 in 10.0 mi NNE 6.9 mph - N/A   Overcast
12:35 PM 64.4 °F 61.2 °F 89% 30.00 in 10.0 mi ENE 5.8 mph - N/A   Overcast
12:55 PM 65.8 °F 61.2 °F 85% 30.00 in 10.0 mi ENE 4.6 mph - N/A Rain Light Rain
1:15 PM 65.7 °F 61.3 °F 86% 30.00 in 10.0 mi ENE 5.8 mph - N/A Rain Light Rain
1:35 PM 64.9 °F 61.9 °F 90% 29.99 in 7.0 mi NE 6.9 mph - N/A Rain Rain
2:15 PM 65.7 °F 63.1 °F 92% 29.97 in 10.0 mi ENE 6.9 mph - N/A Rain Light Rain
2:55 PM 64.9 °F 61.7 °F 89% 29.97 in 10.0 mi ENE 4.6 mph - N/A   Overcast
3:15 PM 64.9 °F 61.2 °F 88% 29.97 in 10.0 mi East 4.6 mph - N/A   Overcast
3:35 PM 64.9 °F 61.3 °F 88% 29.96 in 10.0 mi ENE 5.8 mph - N/A Rain Light Rain
3:55 PM 65.1 °F 61.9 °F 89% 29.97 in 10.0 mi Calm Calm - N/A   Overcast
4:15 PM 64.2 °F 61.9 °F 92% 29.95 in 10.0 mi East 6.9 mph - N/A Rain Light Rain
4:55 PM 63.7 °F 61.5 °F 93% 29.97 in 10.0 mi ENE 4.6 mph - 0.01 in Rain Rain
5:15 PM 63.5 °F 61.5 °F 93% 29.95 in 10.0 mi ENE 6.9 mph - N/A   Overcast
5:35 PM 63.1 °F 61.2 °F 93% 29.96 in 10.0 mi Calm Calm - N/A   Overcast
5:55 PM 63.1 °F 61.0 °F 93% 29.96 in 10.0 mi ESE 3.5 mph - N/A   Overcast
6:15 PM 63.5 °F 61.0 °F 91% 29.97 in 10.0 mi Calm Calm - N/A   Overcast
6:35 PM 63.0 °F 60.4 °F 91% 29.97 in 10.0 mi Calm Calm - N/A   Overcast
6:55 PM 62.8 °F 59.9 °F 90% 29.97 in 10.0 mi Calm Calm - N/A   Overcast
7:15 PM 62.6 °F 60.1 °F 91% 29.98 in 10.0 mi ENE 3.5 mph - N/A   Overcast
7:35 PM 61.7 °F 60.1 °F 94% 29.97 in 10.0 mi ENE 3.5 mph - N/A   Overcast
7:55 PM 61.0 °F 59.5 °F 95% 29.98 in 10.0 mi Calm Calm - N/A   Overcast
8:15 PM 60.8 °F 59.4 °F 95% 29.98 in 10.0 mi Calm Calm - N/A   Overcast
8:35 PM 60.8 °F 60.8 °F 100% 29.98 in 7.0 mi Calm Calm - N/A   Mostly Cloudy
8:55 PM 60.1 °F 60.1 °F 100% 29.98 in 7.0 mi East 3.5 mph - N/A   Mostly Cloudy
9:15 PM 60.1 °F 60.1 °F 100% 29.99 in 7.0 mi Calm Calm - N/A   Overcast
9:35 PM 59.9 °F 59.9 °F 100% 30.00 in 7.0 mi Calm Calm - N/A   Overcast
9:55 PM 59.9 °F 59.9 °F 100% 30.00 in 7.0 mi Calm Calm - N/A   Overcast
10:15 PM 59.9 °F 59.9 °F 100% 30.00 in 7.0 mi Calm Calm - N/A   Overcast
10:35 PM 60.3 °F 60.3 °F 100% 30.00 in 7.0 mi Calm Calm - N/A   Overcast
10:55 PM 59.9 °F 59.9 °F 100% 30.00 in 7.0 mi ESE 3.5 mph - N/A   Overcast
11:15 PM 59.5 °F 59.5 °F 100% 30.00 in 5.0 mi Calm Calm - N/A   Overcast
11:35 PM 60.1 °F 60.1 °F 100% 30.00 in 5.0 mi Calm Calm - N/A   Overcast
11:55 PM 59.9 °F 59.9 °F 100% 29.99 in 5.0 mi Calm Calm - N/A   Overcast